Time;durP1;ratioP1;P1;durP2;ratioP2;P2;SDS_P1;SDS_P2;PMS_P1;PMS_P2;Temp;Humidity;BMP_temperature;BMP_pressure;BME280_temperature;BME280_humidity;BME280_pressure;Samples;Min_cycle;Max_cycle;Signal;HPM_P1;HPM_P2
2022/01/20 06:07:22;;;;;;;0.70;0.70;;;;;;;0.99;73.51;99622.75;4985699;28;106012;-64
2022/01/20 06:09:47;;;;;;;2.35;0.68;;;;;;;0.89;74.16;99611.34;4974319;28;105924;-65
2022/01/20 06:12:12;;;;;;;1.27;0.68;;;;;;;0.88;74.73;99614.91;4975967;28;106158;-65
2022/01/20 06:14:37;;;;;;;7.38;1.45;;;;;;;0.87;75.05;99625.53;4972967;28;105961;-66
2022/01/20 06:17:04;;;;;;;8.45;1.52;;;;;;;0.86;75.04;99640.41;4964929;28;106279;-69
2022/01/20 06:19:29;;;;;;;6.60;1.60;;;;;;;0.86;75.24;99629.91;4966070;28;105930;-66
2022/01/20 06:21:54;;;;;;;6.50;1.27;;;;;;;0.84;75.26;99626.59;4965644;28;106155;-68
2022/01/20 06:24:20;;;;;;;2.13;1.33;;;;;;;0.83;75.21;99623.16;4965045;28;105977;-75
2022/01/20 06:26:45;;;;;;;4.50;0.90;;;;;;;0.82;75.06;99612.75;4965045;28;106006;-73
2022/01/20 06:29:10;;;;;;;2.88;1.13;;;;;;;0.80;75.16;99612.06;4965634;28;105906;-72
2022/01/20 06:31:36;;;;;;;2.67;0.88;;;;;;;0.79;75.03;99586.78;4965021;28;105913;-68
2022/01/20 06:34:01;;;;;;;5.88;1.67;;;;;;;0.77;74.98;99584.28;4965020;28;111239;-72
2022/01/20 06:36:26;;;;;;;3.97;1.75;;;;;;;0.79;75.02;99560.56;4964872;28;105927;-75
2022/01/20 06:38:52;;;;;;;1.85;1.05;;;;;;;0.80;74.52;99593.72;4966072;28;105810;-68
2022/01/20 06:41:17;;;;;;;10.68;1.50;;;;;;;0.78;74.60;99591.22;4965226;28;106545;-68
2022/01/20 06:43:43;;;;;;;2.30;0.77;;;;;;;0.74;74.27;99581.06;4964761;28;106379;-71
2022/01/20 06:46:08;;;;;;;8.20;1.40;;;;;;;0.71;74.10;99584.81;4964960;28;108950;-69
2022/01/20 06:48:33;;;;;;;8.70;1.50;;;;;;;0.68;73.93;99587.63;4965086;28;106209;-76
2022/01/20 06:50:59;;;;;;;4.25;1.30;;;;;;;0.63;73.99;99585.41;4964752;28;106489;-69
2022/01/20 06:53:24;;;;;;;4.55;1.80;;;;;;;0.63;74.16;99593.25;4964319;28;106621;-74
2022/01/20 06:55:49;;;;;;;9.82;2.42;;;;;;;0.60;73.98;99585.66;4964972;28;105917;-74
2022/01/20 06:58:15;;;;;;;5.13;2.22;;;;;;;0.60;74.04;99576.94;4964731;28;106347;-67
2022/01/20 07:00:40;;;;;;;11.63;3.25;;;;;;;0.59;73.98;99575.25;4963348;28;106123;-65
2022/01/20 07:03:05;;;;;;;2.30;1.42;;;;;;;0.56;74.05;99584.22;4947420;28;106371;-66
2022/01/20 07:05:31;;;;;;;4.55;2.17;;;;;;;0.59;73.88;99573.47;4942599;28;106517;-69
2022/01/20 07:07:56;;;;;;;3.85;1.23;;;;;;;0.64;74.17;99553.00;4945617;28;105800;-71
2022/01/20 07:10:22;;;;;;;6.60;1.50;;;;;;;0.72;73.85;99565.47;4945087;28;106310;-69
2022/01/20 07:12:48;;;;;;;6.82;1.42;;;;;;;0.84;73.80;99547.94;4944666;28;107111;-72
2022/01/20 07:15:15;;;;;;;5.32;1.38;;;;;;;0.92;73.47;99545.53;4944565;28;106051;-69
2022/01/20 07:17:41;;;;;;;3.42;1.50;;;;;;;1.07;73.39;99564.44;4937679;28;106294;-67
2022/01/20 07:20:07;;;;;;;3.17;1.00;;;;;;;1.29;73.20;99560.88;4931758;28;106253;-65
2022/01/20 07:22:32;;;;;;;7.97;1.90;;;;;;;1.64;73.20;99553.66;4930819;28;106035;-67
2022/01/20 07:24:58;;;;;;;4.72;1.48;;;;;;;1.96;72.52;99545.69;4931500;28;106458;-68
2022/01/20 07:27:23;;;;;;;8.10;1.23;;;;;;;2.20;71.63;99562.94;4932083;28;105851;-66
2022/01/20 07:29:49;;;;;;;5.15;2.22;;;;;;;2.27;71.18;99537.81;4931495;28;105810;-67
2022/01/20 07:32:14;;;;;;;4.97;1.27;;;;;;;2.31;70.28;99541.84;4929944;28;106116;-70
2022/01/20 07:34:39;;;;;;;10.40;2.67;;;;;;;2.26;69.89;99549.28;4931282;28;105780;-73
2022/01/20 07:37:05;;;;;;;4.45;1.33;;;;;;;2.25;69.74;99531.84;4930091;28;106056;-72
2022/01/20 07:39:31;;;;;;;8.07;1.80;;;;;;;2.24;69.71;99516.22;4930719;28;105979;-72
2022/01/20 07:41:56;;;;;;;5.70;1.45;;;;;;;2.22;69.26;99512.91;4930932;28;106107;-68
2022/01/20 07:44:21;;;;;;;5.47;1.88;;;;;;;2.22;69.21;99512.91;4931012;28;106111;-78
2022/01/20 07:46:48;;;;;;;6.03;1.25;;;;;;;2.23;68.68;99519.81;4932126;28;106084;-81
2022/01/20 07:49:14;;;;;;;3.17;1.80;;;;;;;2.22;68.98;99510.28;4931079;28;106157;-77
2022/01/20 07:51:40;;;;;;;3.72;0.95;;;;;;;2.14;68.17;99506.50;4930396;28;106227;-83
2022/01/20 07:54:06;;;;;;;4.78;1.52;;;;;;;2.09;68.43;99503.47;4931143;28;106109;-78
2022/01/20 07:56:31;;;;;;;5.22;1.80;;;;;;;2.10;68.35;99514.78;4932284;28;106001;-79
2022/01/20 07:58:57;;;;;;;5.60;1.40;;;;;;;2.12;68.24;99523.34;4929725;28;106193;-81
2022/01/20 08:01:26;;;;;;;7.97;1.50;;;;;;;2.16;67.87;99525.59;4931102;28;106560;-79
2022/01/20 08:03:53;;;;;;;6.68;1.92;;;;;;;2.18;67.81;99518.41;4930750;28;106012;-82
2022/01/20 08:06:20;;;;;;;10.60;3.13;;;;;;;2.19;67.57;99519.25;4931517;28;106183;-81
2022/01/20 08:08:46;;;;;;;4.97;1.77;;;;;;;2.18;67.31;99509.69;4931362;28;105964;-81
2022/01/20 08:11:12;;;;;;;8.35;2.22;;;;;;;2.19;68.05;99521.88;4931541;28;106305;-78
2022/01/20 08:13:38;;;;;;;6.03;1.33;;;;;;;2.15;67.30;99507.34;4931276;28;106164;-83
2022/01/20 08:16:04;;;;;;;15.32;1.27;;;;;;;2.12;67.85;99521.56;4932784;28;106212;-76
2022/01/20 08:18:29;;;;;;;8.32;1.70;;;;;;;2.04;67.96;99547.69;4930191;28;105827;-78
2022/01/20 08:20:54;;;;;;;5.10;1.90;;;;;;;1.95;68.33;99543.19;4931042;28;105758;-76
2022/01/20 08:23:20;;;;;;;7.80;1.80;;;;;;;1.69;68.94;99549.72;4931258;28;105854;-77
2022/01/20 08:25:45;;;;;;;2.22;1.10;;;;;;;1.38;69.87;99559.31;4931836;28;105818;-78
2022/01/20 08:28:12;;;;;;;3.50;1.23;;;;;;;0.98;70.25;99596.66;4931342;28;106203;-74
2022/01/20 08:30:38;;;;;;;1.63;0.90;;;;;;;0.67;71.30;99609.59;4930226;28;106302;-75
2022/01/20 08:33:03;;;;;;;4.13;1.15;;;;;;;0.47;71.90;99645.22;4930844;28;105927;-75
2022/01/20 08:35:32;;;;;;;2.95;0.68;;;;;;;0.30;72.36;99643.88;4931350;28;105987;-79
2022/01/20 08:37:58;;;;;;;0.60;0.57;;;;;;;0.16;73.01;99623.97;4931282;28;105971;-78
2022/01/20 08:40:24;;;;;;;3.92;0.70;;;;;;;0.05;73.34;99626.59;4930411;28;106117;-74
2022/01/20 08:42:51;;;;;;;1.00;0.73;;;;;;;-0.05;74.03;99618.59;4930479;28;106204;-76
2022/01/20 08:45:21;;;;;;;2.50;0.90;;;;;;;-0.09;73.98;99618.00;4930990;28;105914;-76
2022/01/20 08:47:46;;;;;;;4.90;1.40;;;;;;;-0.09;74.41;99620.59;4930611;28;106039;-75
2022/01/20 08:50:12;;;;;;;1.67;0.88;;;;;;;-0.07;74.60;99631.81;4930103;28;106096;-73
2022/01/20 08:52:37;;;;;;;1.20;0.80;;;;;;;-0.05;74.94;99622.03;4929986;28;105836;-73
2022/01/20 08:55:04;;;;;;;2.03;0.65;;;;;;;-0.06;74.90;99623.00;4930970;28;106740;-73
2022/01/20 08:57:30;;;;;;;3.70;1.20;;;;;;;-0.07;75.24;99621.34;4929798;28;106292;-73
2022/01/20 08:59:55;;;;;;;0.40;0.40;;;;;;;-0.10;75.17;99625.97;4930162;28;105989;-76
2022/01/20 09:02:21;;;;;;;4.40;1.08;;;;;;;-0.15;75.23;99621.09;4929583;28;106023;-77
2022/01/20 09:04:47;;;;;;;1.55;0.77;;;;;;;-0.15;75.57;99621.09;4930885;28;106102;-78
2022/01/20 09:07:13;;;;;;;3.47;1.42;;;;;;;-0.13;75.22;99629.66;4929780;28;106235;-76
2022/01/20 09:09:45;;;;;;;2.00;0.75;;;;;;;-0.11;75.90;99603.34;4929977;28;106074;-81
2022/01/20 09:17:24;;;;;;;4.00;1.23;;;;;;;-0.08;76.08;99640.63;4927290;28;106047;-77
2022/01/20 09:19:52;;;;;;;2.67;1.13;;;;;;;-0.10;75.31;99637.25;4929517;28;108001;-83
2022/01/20 09:22:19;;;;;;;2.28;1.35;;;;;;;-0.07;75.85;99650.16;4929537;28;106084;-79
2022/01/20 09:24:45;;;;;;;2.15;1.25;;;;;;;-0.03;76.14;99643.72;4929644;28;106146;-80
2022/01/20 09:27:11;;;;;;;2.50;1.20;;;;;;;0.14;75.80;99639.00;4930079;28;106294;-72
2022/01/20 09:29:37;;;;;;;4.15;1.05;;;;;;;0.23;76.12;99638.28;4929320;28;106306;-75
2022/01/20 09:32:05;;;;;;;4.38;1.42;;;;;;;0.29;76.04;99650.09;4929620;28;105984;-74
2022/01/20 09:34:30;;;;;;;3.67;1.38;;;;;;;0.36;75.65;99664.38;4930063;28;106597;-69
